Time;durP1;ratioP1;P1;durP2;ratioP2;P2;SDS_P1;SDS_P2;PMS_P1;PMS_P2;Temp;Humidity;BMP_temperature;BMP_pressure;BME280_temperature;BME280_humidity;BME280_pressure;Samples;Min_cycle;Max_cycle;Signal;HPM_P1;HPM_P2
2022/05/05 00:01:41;;;;;;;20.60;16.83;;;14.40;99.90;;;;;;5013285;28;20028;-52
2022/05/05 00:04:08;;;;;;;19.65;15.95;;;14.50;99.90;;;;;;5014035;28;20034;-51
2022/05/05 00:06:34;;;;;;;20.08;17.17;;;14.50;99.90;;;;;;5013677;28;20076;-56
2022/05/05 00:09:00;;;;;;;21.80;17.38;;;14.40;99.90;;;;;;5013972;28;20045;-51
2022/05/05 00:14:27;;;;;;;19.52;16.52;;;14.40;99.90;;;;;;5013717;28;20030;-50
2022/05/05 00:16:56;;;;;;;21.42;17.27;;;14.40;99.90;;;;;;5014040;28;20033;-51
2022/05/05 00:19:22;;;;;;;21.90;17.65;;;14.40;99.90;;;;;;5011274;28;20026;-54
2022/05/05 00:21:47;;;;;;;19.83;17.73;;;14.50;99.90;;;;;;5013809;28;20030;-54
2022/05/05 00:24:13;;;;;;;19.35;15.82;;;14.60;99.90;;;;;;5013144;28;20037;-52
2022/05/05 00:26:39;;;;;;;20.55;18.15;;;14.40;99.90;;;;;;5013534;28;20109;-53
2022/05/05 00:29:05;;;;;;;20.23;16.10;;;14.40;99.90;;;;;;5013032;28;20138;-54
2022/05/05 00:31:31;;;;;;;22.88;18.70;;;14.50;99.90;;;;;;5012914;28;20492;-54
2022/05/05 00:33:57;;;;;;;24.95;19.23;;;14.30;99.90;;;;;;5014232;28;20080;-51
2022/05/05 00:36:23;;;;;;;24.33;18.90;;;14.30;99.90;;;;;;5012959;28;20037;-53
2022/05/05 00:38:48;;;;;;;22.65;17.98;;;14.30;99.90;;;;;;5013759;28;20099;-52
2022/05/05 00:41:14;;;;;;;28.35;18.73;;;14.30;99.90;;;;;;5013014;28;20033;-49
2022/05/05 00:43:39;;;;;;;21.02;17.98;;;14.30;99.90;;;;;;5013782;28;20033;-54
2022/05/05 00:46:05;;;;;;;24.40;18.73;;;14.30;99.90;;;;;;5013369;28;20038;-52
2022/05/05 00:48:31;;;;;;;20.33;18.05;;;14.20;99.90;;;;;;5010552;28;20434;-50
2022/05/05 00:50:58;;;;;;;21.75;18.75;;;14.30;99.90;;;;;;5012685;28;20053;-52
2022/05/05 00:53:24;;;;;;;24.10;18.65;;;14.20;99.90;;;;;;5012419;28;20459;-52
2022/05/05 00:55:55;;;;;;;24.08;19.83;;;14.00;99.90;;;;;;5012188;28;20036;-52
2022/05/05 00:58:22;;;;;;;21.20;18.52;;;13.90;99.90;;;;;;5012841;28;20116;-53
2022/05/05 01:00:48;;;;;;;22.60;19.98;;;14.00;99.90;;;;;;5012884;28;20473;-52
2022/05/05 01:03:15;;;;;;;21.45;18.98;;;14.00;99.90;;;;;;5012733;28;20394;-50
2022/05/05 01:05:41;;;;;;;23.42;19.20;;;14.00;99.90;;;;;;5012517;28;20497;-52
2022/05/05 01:08:07;;;;;;;21.20;18.33;;;14.20;99.90;;;;;;5012264;28;20109;-54
2022/05/05 01:10:32;;;;;;;22.77;20.35;;;14.30;99.90;;;;;;5011974;28;20437;-51
2022/05/05 01:13:01;;;;;;;23.67;20.90;;;14.20;99.90;;;;;;5012037;28;20054;-54
2022/05/05 01:15:28;;;;;;;22.45;20.15;;;14.10;99.90;;;;;;5011011;28;20116;-49
2022/05/05 01:17:54;;;;;;;22.00;19.70;;;14.20;99.90;;;;;;5011148;28;20088;-52
2022/05/05 01:20:22;;;;;;;24.98;20.98;;;14.10;99.90;;;;;;5012434;28;20030;-49
2022/05/05 01:22:49;;;;;;;27.70;21.17;;;14.00;99.90;;;;;;5011783;28;20537;-53
2022/05/05 01:28:11;;;;;;;22.88;20.48;;;14.00;99.90;;;;;;5012433;28;20060;-52
2022/05/05 01:30:46;;;;;;;23.60;20.90;;;13.90;99.90;;;;;;5012239;28;20490;-52
2022/05/05 01:33:23;;;;;;;24.58;20.98;;;13.90;99.90;;;;;;5011559;28;20087;-53
2022/05/05 01:35:50;;;;;;;26.50;22.40;;;13.90;99.90;;;;;;5011416;28;20092;-53
2022/05/05 01:38:20;;;;;;;25.23;21.58;;;13.80;99.90;;;;;;5011616;28;20058;-53
2022/05/05 01:40:48;;;;;;;23.80;21.00;;;13.80;99.90;;;;;;5012163;28;20026;-52
2022/05/05 01:43:19;;;;;;;24.48;21.25;;;13.90;99.90;;;;;;5010205;28;20026;-51
2022/05/05 01:45:46;;;;;;;25.77;21.13;;;13.90;99.90;;;;;;5011264;28;20038;-50
2022/05/05 01:48:12;;;;;;;23.52;20.55;;;13.80;99.90;;;;;;5011184;28;20030;-54
2022/05/05 01:50:38;;;;;;;23.83;20.83;;;13.90;99.90;;;;;;5011775;28;20104;-53
2022/05/05 01:53:07;;;;;;;24.10;21.45;;;14.00;99.90;;;;;;5011363;28;20419;-50
2022/05/05 01:55:33;;;;;;;23.23;20.17;;;13.90;99.90;;;;;;5011022;28;20034;-52
2022/05/05 01:58:00;;;;;;;23.92;20.73;;;13.80;99.90;;;;;;5011014;28;20036;-51
2022/05/05 02:00:26;;;;;;;23.48;20.92;;;13.90;99.90;;;;;;5011317;28;20022;-50
2022/05/05 02:02:52;;;;;;;22.00;19.45;;;13.80;99.90;;;;;;5011861;28;20069;-49
2022/05/05 02:05:18;;;;;;;26.63;20.10;;;13.90;99.90;;;;;;5011671;28;20065;-54
2022/05/05 02:07:45;;;;;;;25.95;20.80;;;13.90;99.90;;;;;;5011534;28;20026;-52
2022/05/05 02:10:14;;;;;;;28.75;20.95;;;13.80;99.90;;;;;;5011679;28;20033;-53
2022/05/05 02:12:39;;;;;;;27.83;20.88;;;13.90;99.90;;;;;;5011258;28;20030;-49
2022/05/05 02:15:06;;;;;;;24.88;20.20;;;13.70;99.90;;;;;;5011492;28;20165;-49
2022/05/05 02:17:36;;;;;;;22.75;20.27;;;13.80;99.90;;;;;;5011822;28;20391;-55
2022/05/05 02:20:04;;;;;;;23.25;20.45;;;13.80;99.90;;;;;;5011324;28;20026;-53
2022/05/05 02:22:30;;;;;;;22.33;19.92;;;13.70;99.90;;;;;;5011238;28;20022;-53
2022/05/05 02:24:56;;;;;;;24.33;19.85;;;13.80;99.90;;;;;;5011018;28;20041;-53
2022/05/05 02:27:21;;;;;;;24.38;21.17;;;13.90;99.90;;;;;;5011294;28;20030;-50
2022/05/05 02:29:48;;;;;;;26.73;21.35;;;13.90;99.90;;;;;;5011291;28;20132;-51
2022/05/05 02:32:14;;;;;;;24.92;20.63;;;13.70;99.90;;;;;;5011473;28;20135;-54
2022/05/05 02:34:40;;;;;;;24.95;20.48;;;13.60;99.90;;;;;;5011605;28;20393;-53
2022/05/05 02:39:50;;;;;;;23.95;19.60;;;13.70;99.90;;;;;;5017820;28;20030;-51
2022/05/05 02:42:18;;;;;;;24.50;20.50;;;13.80;99.90;;;;;;5019493;28;20120;-59
2022/05/05 02:44:44;;;;;;;24.77;21.20;;;13.70;99.90;;;;;;5018561;28;20045;-51
2022/05/05 02:47:10;;;;;;;26.40;21.25;;;13.70;99.90;;;;;;5011945;28;20038;-48
2022/05/05 02:49:36;;;;;;;25.40;20.27;;;13.60;99.90;;;;;;5011293;28;20030;-52
2022/05/05 02:52:06;;;;;;;24.33;20.13;;;13.50;99.90;;;;;;5011452;28;20497;-52
2022/05/05 02:54:50;;;;;;;24.40;20.20;;;13.60;99.90;;;;;;5010517;28;20044;-53
2022/05/05 02:57:23;;;;;;;25.07;21.00;;;13.40;99.90;;;;;;5011562;28;20057;-51
2022/05/05 02:59:49;;;;;;;28.48;21.40;;;13.40;99.90;;;;;;5011160;28;20080;-55
2022/05/05 03:02:15;;;;;;;27.10;20.83;;;13.40;99.90;;;;;;5008666;28;20064;-54
2022/05/05 03:04:41;;;;;;;25.40;20.48;;;13.40;99.90;;;;;;5009614;28;20482;-49
2022/05/05 03:07:07;;;;;;;24.08;21.13;;;13.20;99.90;;;;;;5009042;28;20029;-53
2022/05/05 03:09:32;;;;;;;23.63;20.08;;;13.30;99.90;;;;;;5010185;28;20053;-51
2022/05/05 03:11:58;;;;;;;27.13;21.17;;;13.40;99.90;;;;;;5012155;28;20033;-50
2022/05/05 03:14:23;;;;;;;24.27;21.23;;;13.30;99.90;;;;;;5014808;28;20481;-51
2022/05/05 03:16:49;;;;;;;28.25;21.05;;;13.20;99.90;;;;;;5015378;28;20056;-53
2022/05/05 03:19:15;;;;;;;24.20;21.40;;;13.20;99.90;;;;;;5015819;28;20026;-53
2022/05/05 03:21:41;;;;;;;22.52;19.63;;;13.10;99.90;;;;;;5014773;28;20103;-51
2022/05/05 03:24:06;;;;;;;26.67;20.55;;;13.20;99.90;;;;;;5014791;28;20065;-54
2022/05/05 03:26:32;;;;;;;24.58;21.55;;;13.20;99.90;;;;;;5014455;28;20041;-53
2022/05/05 03:28:58;;;;;;;25.85;20.08;;;13.10;99.90;;;;;;5014923;28;20038;-54
2022/05/05 03:31:23;;;;;;;24.30;21.13;;;13.10;99.90;;;;;;5014885;28;20030;-54
2022/05/05 03:33:49;;;;;;;26.38;20.42;;;13.00;99.90;;;;;;5014202;28;20056;-54
2022/05/05 03:36:15;;;;;;;22.65;20.25;;;13.00;99.90;;;;;;5011709;28;20034;-52
2022/05/05 03:38:41;;;;;;;23.55;20.85;;;13.00;99.90;;;;;;5013830;28;20026;-53
2022/05/05 03:41:06;;;;;;;24.88;20.90;;;13.10;99.90;;;;;;5014524;28;20026;-57
2022/05/05 03:43:33;;;;;;;26.60;21.23;;;13.00;99.90;;;;;;5014098;28;20053;-55
2022/05/05 03:45:58;;;;;;;26.17;21.33;;;13.00;99.90;;;;;;5014760;28;20112;-51
2022/05/05 03:48:24;;;;;;;22.15;19.77;;;13.20;99.90;;;;;;5015340;28;20061;-54
2022/05/05 03:50:50;;;;;;;27.98;22.38;;;13.20;99.90;;;;;;5014386;28;20509;-51
2022/05/05 03:53:16;;;;;;;30.08;22.15;;;13.20;99.90;;;;;;5014121;28;20116;-51
2022/05/05 03:55:41;;;;;;;27.25;21.58;;;13.00;99.90;;;;;;5013702;28;20117;-55
2022/05/05 03:58:07;;;;;;;27.38;21.77;;;12.90;99.90;;;;;;5012760;28;20040;-52
2022/05/05 04:00:32;;;;;;;27.90;22.63;;;12.80;99.90;;;;;;5014450;28;20054;-50
2022/05/05 04:05:42;;;;;;;29.35;22.15;;;12.90;99.90;;;;;;5014492;28;20065;-51
2022/05/05 04:08:08;;;;;;;24.42;21.17;;;12.90;99.90;;;;;;5015846;28;20064;-56
2022/05/05 04:10:33;;;;;;;27.10;21.50;;;12.90;99.90;;;;;;5014504;28;20114;-54
2022/05/05 04:12:59;;;;;;;24.80;20.95;;;13.10;99.90;;;;;;5013443;28;20037;-54
2022/05/05 04:15:24;;;;;;;25.77;21.42;;;13.00;99.90;;;;;;5013205;28;20436;-52
2022/05/05 04:17:51;;;;;;;24.00;20.35;;;13.00;99.90;;;;;;5013007;28;20477;-52
2022/05/05 04:20:17;;;;;;;24.35;21.50;;;13.10;99.90;;;;;;5012941;28;20036;-52
2022/05/05 04:22:43;;;;;;;28.50;22.88;;;13.00;99.90;;;;;;5012435;28;20053;-50
2022/05/05 04:25:09;;;;;;;28.48;23.17;;;12.90;99.90;;;;;;5011866;28;20058;-52
2022/05/05 04:27:35;;;;;;;25.88;22.25;;;12.90;99.90;;;;;;5012770;28;20022;-55
2022/05/05 04:30:02;;;;;;;31.30;23.35;;;12.90;99.90;;;;;;5012978;28;20029;-56
2022/05/05 04:32:28;;;;;;;29.55;23.20;;;12.60;99.90;;;;;;5012783;28;20045;-56
2022/05/05 04:34:54;;;;;;;26.75;21.88;;;12.60;99.90;;;;;;5013181;28;20437;-51
2022/05/05 04:37:20;;;;;;;24.80;22.00;;;12.70;99.90;;;;;;5012459;28;20041;-53
2022/05/05 04:39:46;;;;;;;24.02;20.90;;;12.70;99.90;;;;;;5013466;28;20084;-54
2022/05/05 04:42:11;;;;;;;25.67;21.58;;;12.70;99.90;;;;;;5011964;28;20026;-54
2022/05/05 04:44:37;;;;;;;25.05;22.38;;;12.80;99.90;;;;;;5012858;28;20034;-55
2022/05/05 04:47:03;;;;;;;25.42;20.65;;;12.70;99.90;;;;;;5012777;28;20440;-52
2022/05/05 04:49:29;;;;;;;26.15;21.08;;;12.60;99.90;;;;;;5012135;28;20069;-56
2022/05/05 04:51:54;;;;;;;24.67;20.85;;;12.60;99.90;;;;;;5011022;28;20022;-54
2022/05/05 04:54:20;;;;;;;24.42;19.25;;;12.50;99.90;;;;;;5011581;28;20040;-53
2022/05/05 04:56:46;;;;;;;22.90;19.13;;;12.50;99.90;;;;;;5016549;28;20041;-55
2022/05/05 04:59:12;;;;;;;21.73;17.25;;;12.60;99.90;;;;;;5012921;28;20038;-55
2022/05/05 05:01:37;;;;;;;22.05;18.42;;;12.50;99.90;;;;;;5017289;28;20061;-56
2022/05/05 05:04:03;;;;;;;22.08;18.95;;;12.60;99.90;;;;;;5010961;28;20054;-58
2022/05/05 05:06:29;;;;;;;24.45;17.58;;;12.60;99.90;;;;;;5012758;28;20042;-55
2022/05/05 05:08:55;;;;;;;20.02;17.30;;;12.70;99.90;;;;;;5012832;28;20037;-54
2022/05/05 05:11:21;;;;;;;22.45;17.58;;;12.80;99.90;;;;;;5012991;28;20045;-53
2022/05/05 05:13:47;;;;;;;24.08;19.08;;;12.70;99.90;;;;;;5013152;28;20026;-52
2022/05/05 05:16:12;;;;;;;18.75;15.80;;;12.80;99.90;;;;;;5012095;28;20191;-53
2022/05/05 05:18:38;;;;;;;24.05;17.52;;;12.70;99.90;;;;;;5012222;28;20523;-56
2022/05/05 05:21:04;;;;;;;23.33;19.13;;;12.80;99.90;;;;;;5012011;28;20033;-54
2022/05/05 05:23:29;;;;;;;24.20;18.15;;;12.90;99.90;;;;;;5011712;28;20057;-53
2022/05/05 05:25:55;;;;;;;24.27;20.13;;;12.80;99.90;;;;;;5011637;28;20120;-57
2022/05/05 05:28:20;;;;;;;20.83;17.25;;;12.60;99.90;;;;;;5012175;28;20033;-56
2022/05/05 05:30:46;;;;;;;21.42;17.92;;;12.90;99.90;;;;;;5011459;28;20056;-54
2022/05/05 05:33:12;;;;;;;21.77;18.77;;;12.90;99.90;;;;;;5011920;28;20077;-53
2022/05/05 05:35:37;;;;;;;23.13;18.88;;;12.90;99.90;;;;;;5009803;28;20033;-55
2022/05/05 05:38:03;;;;;;;21.85;18.00;;;13.00;99.90;;;;;;5011463;28;20115;-53
2022/05/05 05:40:29;;;;;;;22.02;17.83;;;13.10;99.90;;;;;;5019730;28;20064;-55
2022/05/05 05:42:55;;;;;;;25.38;19.13;;;13.00;99.90;;;;;;5011155;28;20062;-56
2022/05/05 05:45:21;;;;;;;27.90;19.38;;;12.90;99.90;;;;;;5011314;28;20041;-55
2022/05/05 05:47:46;;;;;;;26.00;19.02;;;13.10;99.90;;;;;;5011762;28;20096;-55
2022/05/05 05:50:12;;;;;;;23.00;19.27;;;13.20;99.90;;;;;;5011889;28;20045;-53
2022/05/05 05:52:37;;;;;;;22.75;17.98;;;13.20;99.90;;;;;;5011731;28;20088;-51
2022/05/05 05:55:03;;;;;;;21.30;18.80;;;13.30;99.90;;;;;;5011795;28;20030;-55
2022/05/05 05:57:29;;;;;;;25.20;19.40;;;13.10;99.90;;;;;;5009731;28;20037;-51
2022/05/05 05:59:54;;;;;;;23.25;19.15;;;13.10;99.90;;;;;;5011305;28;20030;-53
2022/05/05 06:05:06;;;;;;;23.60;18.63;;;13.30;99.90;;;;;;5011516;28;20030;-52
2022/05/05 06:07:32;;;;;;;21.70;19.08;;;13.20;99.90;;;;;;5024188;28;20482;-52
2022/05/05 06:09:57;;;;;;;22.08;18.42;;;13.20;99.90;;;;;;5014848;28;20125;-56
2022/05/05 06:12:23;;;;;;;33.60;20.58;;;13.20;99.90;;;;;;4995687;28;20045;-51
2022/05/05 06:14:48;;;;;;;26.38;18.88;;;13.20;99.90;;;;;;5034921;28;20397;-55
2022/05/05 06:17:14;;;;;;;25.10;19.40;;;13.10;99.90;;;;;;5018845;28;20124;-56
2022/05/05 06:19:41;;;;;;;28.52;19.25;;;13.20;99.90;;;;;;5012363;28;20037;-54
2022/05/05 06:22:07;;;;;;;25.75;20.38;;;13.30;99.90;;;;;;5012015;28;20022;-51
2022/05/05 06:24:32;;;;;;;25.90;19.75;;;13.30;99.90;;;;;;5010971;28;20465;-51
2022/05/05 06:26:58;;;;;;;31.25;17.90;;;13.30;99.90;;;;;;5007874;28;20478;-50
2022/05/05 06:29:25;;;;;;;20.33;17.80;;;13.40;99.90;;;;;;5011758;28;20736;-53
2022/05/05 06:31:51;;;;;;;20.75;18.05;;;13.30;99.90;;;;;;5007694;28;20030;-52
2022/05/05 06:34:16;;;;;;;20.70;18.30;;;13.20;99.90;;;;;;5011283;28;20041;-52
2022/05/05 06:36:42;;;;;;;20.95;17.60;;;13.20;99.90;;;;;;5015356;28;20373;-49
2022/05/05 06:39:07;;;;;;;24.02;18.98;;;13.20;99.90;;;;;;5010654;28;20037;-50
2022/05/05 06:41:34;;;;;;;27.80;18.52;;;13.30;99.90;;;;;;5012735;28;20041;-54
2022/05/05 06:43:59;;;;;;;24.30;18.27;;;13.30;99.90;;;;;;5011245;28;20034;-55
2022/05/05 06:46:25;;;;;;;24.05;16.90;;;13.40;99.90;;;;;;4997680;28;20401;-54
2022/05/05 06:48:51;;;;;;;22.65;17.38;;;13.40;99.90;;;;;;5014512;28;20040;-54
2022/05/05 06:51:16;;;;;;;20.65;16.33;;;13.40;99.90;;;;;;5014738;28;20041;-55
2022/05/05 06:53:42;;;;;;;23.30;16.85;;;13.40;99.90;;;;;;5015256;28;20482;-54
2022/05/05 06:56:07;;;;;;;21.52;16.40;;;13.50;99.90;;;;;;5014707;28;20201;-54
2022/05/05 06:58:33;;;;;;;21.80;15.18;;;13.60;99.90;;;;;;5015348;28;20064;-55
2022/05/05 07:03:43;;;;;;;21.75;16.42;;;14.00;99.90;;;;;;5015401;28;20159;-54
2022/05/05 07:06:10;;;;;;;20.55;15.20;;;14.00;99.90;;;;;;5015388;28;20116;-52
2022/05/05 07:11:21;;;;;;;17.63;13.90;;;13.90;99.90;;;;;;5015740;28;20034;-54
2022/05/05 07:13:46;;;;;;;16.08;14.35;;;13.90;99.90;;;;;;5014839;28;20034;-52
2022/05/05 07:16:12;;;;;;;28.30;15.93;;;14.00;99.90;;;;;;5015119;28;20195;-52
2022/05/05 07:18:37;;;;;;;20.15;15.05;;;13.80;99.90;;;;;;5015037;28;20041;-55
2022/05/05 07:21:03;;;;;;;22.52;14.68;;;13.80;99.90;;;;;;5015464;28;20026;-56
2022/05/05 07:23:29;;;;;;;19.27;15.25;;;13.60;99.90;;;;;;5014677;28;20109;-51
2022/05/05 07:25:54;;;;;;;15.02;13.38;;;13.60;99.90;;;;;;5013080;28;20069;-53
2022/05/05 07:28:20;;;;;;;18.17;13.32;;;13.50;99.90;;;;;;5015085;28;20473;-52
2022/05/05 07:30:46;;;;;;;16.60;12.25;;;13.70;99.90;;;;;;5015359;28;20536;-52
2022/05/05 07:33:11;;;;;;;14.98;12.93;;;13.90;99.90;;;;;;5012861;28;20057;-55
2022/05/05 07:35:39;;;;;;;18.20;13.45;;;13.80;99.90;;;;;;5020933;28;20026;-57
2022/05/05 07:38:06;;;;;;;21.17;14.00;;;13.90;99.90;;;;;;5014156;28;20034;-55
2022/05/05 07:40:31;;;;;;;16.23;13.20;;;14.10;99.90;;;;;;5014234;28;20060;-53
2022/05/05 07:42:57;;;;;;;14.13;12.60;;;14.20;99.90;;;;;;5013781;28;20061;-56
2022/05/05 07:45:23;;;;;;;15.82;13.32;;;14.30;99.90;;;;;;5013696;28;20405;-48
2022/05/05 07:47:49;;;;;;;15.45;13.45;;;14.40;99.90;;;;;;5021620;28;20392;-51
2022/05/05 07:50:15;;;;;;;15.45;12.35;;;14.50;99.90;;;;;;5033594;28;20043;-50
2022/05/05 07:52:41;;;;;;;22.63;12.77;;;14.50;99.90;;;;;;5019825;28;20038;-51
2022/05/05 07:55:07;;;;;;;22.67;13.50;;;14.50;99.90;;;;;;5014371;28;20041;-55
2022/05/05 07:57:41;;;;;;;17.90;13.02;;;14.60;99.90;;;;;;5014228;28;20048;-50
2022/05/05 08:00:07;;;;;;;15.43;12.70;;;14.90;99.90;;;;;;5014930;28;20494;-54
2022/05/05 08:02:35;;;;;;;15.50;13.25;;;15.00;99.90;;;;;;5010249;28;20069;-64
2022/05/05 08:05:00;;;;;;;19.40;13.30;;;15.00;99.90;;;;;;5017945;28;20670;-53
2022/05/05 08:07:26;;;;;;;16.05;12.60;;;14.80;99.90;;;;;;5008907;28;20113;-46
2022/05/05 08:09:51;;;;;;;15.55;13.27;;;15.00;99.90;;;;;;5010697;28;20038;-47
2022/05/05 08:12:17;;;;;;;18.65;12.40;;;15.20;99.90;;;;;;5014935;28;20041;-52
2022/05/05 08:14:43;;;;;;;16.33;13.45;;;15.30;99.90;;;;;;5014315;28;20428;-51
2022/05/05 08:17:08;;;;;;;19.60;12.50;;;15.30;99.90;;;;;;5012880;28;20050;-56
2022/05/05 08:19:34;;;;;;;20.38;13.00;;;15.30;99.90;;;;;;5011911;28;20030;-50
2022/05/05 08:21:59;;;;;;;22.75;14.10;;;15.50;99.90;;;;;;5018070;28;20053;-52
2022/05/05 08:29:54;;;;;;;19.30;13.63;;;15.40;99.90;;;;;;5013591;28;20490;-52
2022/05/05 08:32:19;;;;;;;20.85;13.88;;;15.70;99.50;;;;;;5013609;28;20072;-48
2022/05/05 08:34:45;;;;;;;16.27;13.15;;;15.80;99.30;;;;;;5013661;28;20034;-48
2022/05/05 08:37:11;;;;;;;18.40;13.57;;;15.90;99.10;;;;;;4999937;28;20699;-54
2022/05/05 08:39:38;;;;;;;16.88;13.52;;;15.70;99.00;;;;;;5012466;28;20022;-50
2022/05/05 08:42:04;;;;;;;16.25;12.55;;;15.70;99.60;;;;;;5009785;28;20026;-54
2022/05/05 08:44:30;;;;;;;17.95;12.90;;;15.90;99.20;;;;;;5016680;28;20079;-55
2022/05/05 08:46:56;;;;;;;17.40;13.93;;;16.00;98.90;;;;;;5013831;28;20037;-63
2022/05/05 08:49:25;;;;;;;19.20;12.88;;;16.10;98.70;;;;;;5013161;28;20044;-53
2022/05/05 08:51:54;;;;;;;15.82;12.65;;;16.10;97.60;;;;;;5012623;28;20026;-50
2022/05/05 08:54:25;;;;;;;17.58;13.45;;;15.90;97.90;;;;;;5008602;28;20038;-54
2022/05/05 08:56:51;;;;;;;15.35;13.25;;;16.00;97.70;;;;;;5004634;28;20038;-54
2022/05/05 08:59:18;;;;;;;18.45;13.10;;;15.90;98.20;;;;;;5010847;28;20068;-51
2022/05/05 09:01:44;;;;;;;17.33;13.38;;;16.00;98.20;;;;;;5017354;28;20092;-50
2022/05/05 09:04:11;;;;;;;14.40;11.60;;;16.20;96.80;;;;;;5011012;28;20026;-53
2022/05/05 09:06:48;;;;;;;16.98;13.07;;;16.20;97.00;;;;;;5015237;28;20057;-51
2022/05/05 09:09:22;;;;;;;17.70;12.60;;;16.10;97.40;;;;;;5015554;28;20034;-55
2022/05/05 09:12:23;;;;;;;19.88;13.23;;;16.30;96.40;;;;;;5015768;28;20033;-52
2022/05/05 09:14:53;;;;;;;20.35;12.93;;;16.40;96.40;;;;;;5013271;28;20038;-50
2022/05/05 09:17:23;;;;;;;16.10;12.52;;;16.40;96.30;;;;;;5024205;28;20057;-52
2022/05/05 09:19:54;;;;;;;16.20;12.27;;;16.30;95.60;;;;;;5016956;28;20034;-51
2022/05/05 09:22:21;;;;;;;17.58;12.48;;;16.50;95.30;;;;;;5028993;28;20125;-54
2022/05/05 09:24:52;;;;;;;15.38;13.15;;;16.30;94.70;;;;;;5020060;28;20025;-54
2022/05/05 09:27:20;;;;;;;21.63;13.05;;;16.40;95.20;;;;;;5032968;28;20444;-52
2022/05/05 09:30:06;;;;;;;16.23;12.77;;;16.50;96.00;;;;;;5018245;28;20030;-53
2022/05/05 09:32:43;;;;;;;19.58;13.40;;;16.60;95.50;;;;;;5007762;28;20024;-54
2022/05/05 09:35:16;;;;;;;17.23;12.52;;;16.60;94.80;;;;;;5023917;28;20044;-54
2022/05/05 09:37:50;;;;;;;18.15;12.55;;;16.40;93.70;;;;;;5013225;28;20116;-56
2022/05/05 09:40:18;;;;;;;17.65;13.05;;;16.40;93.60;;;;;;5015133;28;20056;-55
2022/05/05 09:42:46;;;;;;;19.70;12.88;;;16.60;93.70;;;;;;5014458;28;20033;-54
2022/05/05 09:45:19;;;;;;;17.58;11.85;;;16.60;94.10;;;;;;5022114;28;20038;-53
2022/05/05 09:47:56;;;;;;;16.35;13.00;;;16.80;94.20;;;;;;5027216;28;20040;-50
2022/05/05 09:50:27;;;;;;;18.73;14.13;;;16.80;94.70;;;;;;5016327;28;20037;-52
2022/05/05 09:58:35;;;;;;;17.73;13.65;;;17.00;94.40;;;;;;4996659;28;20026;-51
2022/05/05 10:01:08;;;;;;;16.40;13.10;;;17.10;94.00;;;;;;5021045;28;20056;-54
2022/05/05 10:06:28;;;;;;;19.65;12.45;;;17.30;93.60;;;;;;5027228;28;20018;-54
2022/05/05 10:08:57;;;;;;;20.40;13.38;;;17.30;92.30;;;;;;5020078;28;20045;-52
2022/05/05 10:11:23;;;;;;;15.88;11.57;;;17.30;92.90;;;;;;5020824;28;20033;-55
2022/05/05 10:13:50;;;;;;;16.92;12.52;;;17.30;93.00;;;;;;5014885;28;20050;-53
2022/05/05 10:16:18;;;;;;;20.88;13.90;;;17.60;92.30;;;;;;5028820;28;20041;-52
2022/05/05 10:18:44;;;;;;;17.83;12.90;;;17.50;91.50;;;;;;5012792;28;20064;-52
2022/05/05 10:21:19;;;;;;;18.63;13.35;;;17.40;91.30;;;;;;5011235;28;20038;-53
2022/05/05 10:23:50;;;;;;;16.85;12.02;;;17.40;90.20;;;;;;5011503;28;20076;-52
2022/05/05 10:26:24;;;;;;;16.17;12.48;;;17.40;89.80;;;;;;5013358;28;20038;-55
2022/05/05 10:28:49;;;;;;;15.63;11.10;;;17.60;88.70;;;;;;5010012;28;20121;-55
2022/05/05 10:31:30;;;;;;;22.20;13.40;;;17.90;89.30;;;;;;5013470;28;20145;-52
2022/05/05 10:34:01;;;;;;;18.38;12.90;;;17.50;90.50;;;;;;5005050;28;20108;-55
2022/05/05 10:36:28;;;;;;;17.77;12.75;;;17.40;91.00;;;;;;5004428;28;20022;-54
2022/05/05 10:38:54;;;;;;;18.05;12.75;;;17.50;90.50;;;;;;5009578;28;20637;-54
2022/05/05 10:41:41;;;;;;;18.58;12.90;;;17.50;90.30;;;;;;5011163;28;20093;-51
2022/05/05 10:44:16;;;;;;;17.45;12.57;;;17.40;90.90;;;;;;4991499;28;20093;-56
2022/05/05 10:47:05;;;;;;;21.58;12.55;;;17.60;90.10;;;;;;5003162;28;20437;-49
2022/05/05 10:49:33;;;;;;;23.15;12.02;;;17.60;88.00;;;;;;5012165;28;20034;-53
2022/05/05 10:52:10;;;;;;;19.13;11.75;;;17.40;87.20;;;;;;5011963;28;20490;-52
2022/05/05 10:54:42;;;;;;;15.95;11.75;;;17.80;86.80;;;;;;5012106;28;20041;-55
2022/05/05 10:57:26;;;;;;;18.23;12.88;;;18.10;87.50;;;;;;5013730;28;20538;-53
2022/05/05 11:00:19;;;;;;;22.33;13.27;;;18.30;88.30;;;;;;5013382;28;20122;-52
2022/05/05 11:03:11;;;;;;;17.17;13.23;;;18.10;89.20;;;;;;5011406;28;20295;-52
2022/05/05 11:05:38;;;;;;;17.63;13.65;;;17.80;89.40;;;;;;5024644;28;20040;-49
2022/05/05 11:08:10;;;;;;;15.43;12.98;;;17.60;90.30;;;;;;5031979;28;20026;-56
2022/05/05 11:10:46;;;;;;;17.13;12.80;;;17.70;90.60;;;;;;5012683;28;20460;-55
2022/05/05 11:13:36;;;;;;;19.20;13.38;;;17.70;90.70;;;;;;5012506;28;20335;-51
2022/05/05 11:22:12;;;;;;;14.98;11.27;;;17.90;89.00;;;;;;5010315;28;20061;-55
2022/05/05 11:24:41;;;;;;;14.90;10.02;;;17.90;86.90;;;;;;5003349;28;20053;-52
2022/05/05 11:27:11;;;;;;;13.45;9.82;;;18.00;86.10;;;;;;5012259;28;20421;-52
2022/05/05 11:29:37;;;;;;;11.15;9.15;;;18.10;81.20;;;;;;5014967;28;20201;-49
2022/05/05 11:32:06;;;;;;;15.43;9.23;;;18.20;80.50;;;;;;5012935;28;20462;-51
2022/05/05 11:34:36;;;;;;;13.07;9.38;;;18.00;80.40;;;;;;5013692;28;20045;-52
2022/05/05 11:37:03;;;;;;;14.05;9.32;;;17.90;81.10;;;;;;5020064;28;20038;-53
2022/05/05 11:39:31;;;;;;;18.42;12.05;;;17.70;83.40;;;;;;5029733;28;20061;-52
2022/05/05 11:42:07;;;;;;;17.23;10.48;;;17.80;84.10;;;;;;5017392;28;20036;-53
2022/05/05 11:44:41;;;;;;;20.58;11.40;;;18.10;84.50;;;;;;5015449;28;20121;-53
2022/05/05 11:47:16;;;;;;;16.33;11.02;;;18.40;83.90;;;;;;5020609;28;20055;-53
2022/05/05 11:49:44;;;;;;;14.82;10.65;;;18.50;83.50;;;;;;5013577;28;20034;-52
2022/05/05 11:52:13;;;;;;;11.18;9.30;;;18.50;83.30;;;;;;5014914;28;20033;-52
2022/05/05 11:54:38;;;;;;;13.70;9.52;;;18.50;81.00;;;;;;5020341;28;20030;-49
2022/05/05 11:57:04;;;;;;;12.75;9.57;;;18.50;79.50;;;;;;5014579;28;20037;-51
2022/05/05 12:02:20;;;;;;;12.23;7.72;;;18.50;78.80;;;;;;5014312;28;20026;-55
2022/05/05 12:04:49;;;;;;;15.90;8.18;;;18.80;78.10;;;;;;5017130;28;20025;-54
2022/05/05 12:07:20;;;;;;;11.27;7.95;;;18.90;77.50;;;;;;5015950;28;20485;-51
2022/05/05 12:09:48;;;;;;;9.57;7.32;;;19.00;77.50;;;;;;5014291;28;20033;-51
2022/05/05 12:12:24;;;;;;;11.63;7.97;;;19.30;76.70;;;;;;5013749;28;20089;-51
2022/05/05 12:14:58;;;;;;;11.15;7.50;;;19.40;76.10;;;;;;5015337;28;20036;-51
2022/05/05 12:17:32;;;;;;;8.68;6.43;;;19.50;75.20;;;;;;5011505;28;20390;-54
2022/05/05 12:20:03;;;;;;;7.90;5.68;;;19.30;73.70;;;;;;5013756;28;20034;-55
2022/05/05 12:22:31;;;;;;;8.30;4.68;;;18.90;71.30;;;;;;5022458;28;20037;-56
2022/05/05 12:25:15;;;;;;;4.25;3.80;;;18.60;72.10;;;;;;5011751;28;20140;-56
2022/05/05 12:27:42;;;;;;;7.63;5.00;;;18.50;71.60;;;;;;5013039;28;20040;-54
2022/05/05 12:30:09;;;;;;;7.10;5.40;;;18.40;74.10;;;;;;5010952;28;20042;-55
2022/05/05 12:32:34;;;;;;;9.07;5.63;;;18.40;73.80;;;;;;5014789;28;20045;-54
2022/05/05 12:35:07;;;;;;;11.75;7.78;;;18.20;74.80;;;;;;5013597;28;20038;-52
2022/05/05 12:37:33;;;;;;;11.43;7.65;;;18.10;77.30;;;;;;5009707;28;20037;-57
2022/05/05 12:40:06;;;;;;;10.48;7.00;;;18.20;77.50;;;;;;5025131;28;20386;-53
2022/05/05 12:42:43;;;;;;;15.20;6.68;;;18.10;76.50;;;;;;5016000;28;20033;-54
2022/05/05 12:45:17;;;;;;;11.75;6.00;;;18.00;76.20;;;;;;5013524;28;20050;-54
2022/05/05 12:47:44;;;;;;;;;;;18.00;75.40;;;;;;5013483;28;20088;-54
2022/05/05 12:50:35;;;;;;;7.30;5.72;;;17.70;76.70;;;;;;5016317;28;19921;-56
2022/05/05 13:01:28;;;;;;;11.73;7.53;;;18.00;79.10;;;;;;5013691;28;20111;-57
2022/05/05 13:03:54;;;;;;;10.52;7.70;;;18.10;78.10;;;;;;5013554;28;20033;-58
2022/05/05 13:06:21;;;;;;;10.98;7.80;;;18.20;78.00;;;;;;5011895;28;20101;-56
2022/05/05 13:08:47;;;;;;;10.82;7.25;;;18.20;77.60;;;;;;5010687;28;20029;-52
2022/05/05 13:11:17;;;;;;;12.20;5.90;;;18.30;77.50;;;;;;5007765;28;20456;-54
2022/05/05 13:13:44;;;;;;;8.35;4.97;;;18.50;76.40;;;;;;5011019;28;20040;-58
2022/05/05 13:16:10;;;;;;;7.32;4.90;;;18.50;72.60;;;;;;5009829;28;20465;-53
2022/05/05 13:18:35;;;;;;;6.93;5.32;;;18.50;70.60;;;;;;5012527;28;20092;-54
2022/05/05 13:21:01;;;;;;;8.43;5.90;;;18.50;72.10;;;;;;5012541;28;20433;-55
2022/05/05 13:23:27;;;;;;;11.80;6.07;;;18.30;71.20;;;;;;5011308;28;20022;-55